Details for Thomas Cook Airlines at EGSS




Go Back


Latest METAR
Local Time

EGSS 221750Z AUTO 36013KT 9999 NCD 16/10 Q1018

22/05/2018, 18:57:12

Description
Results
Thomas Cook Airlines Logo
Number of Pilots based at EGSS
2 Pilots Based here
Number of Thomas Cook Airlines Flights Departed from EGSS
0 Flights Departed
Number of Thomas Cook Airlines Flights Arrived at EGSS
0 Flights Arrived
Number of Thomas Cook Airlines Schedules Departing from EGSS
9 Schedules
Number of Thomas Cook Airlines Schedules Arriving at EGSS
11 Schedules
Number of Thomas Cook Airlines Schedules Departing from EGSS availible today
1 Schedules Today
Number of Thomas Cook Airlines Schedules Arriving at EGSS availible today
1 Schedules Today
Average Landing Rate at EGSS
-239 fpm
Thomas Cook Airlines Average Landing Rate at EGSS
0 fpm
Total Fuel Purchased at EGSS by Thomas Cook Airlines
0.00 kgs / 0.00 lbs

Pilots Based at EGSS


Pilot ID
Pilot Name
Pilot Rank
No. of Flights
No. of Flying Hours
Ian Hart
51
167.28
Joerg Pfeiffer
39
50.27
Content